Goleniow, Poland
Current Conditions -  °F | °C
As of 4:30 AM on Sunday 23 Nov 2014 (Local Time) from EPSC Reporting Station
Light Rain Light Rain  
Wind Chill: 32°   Ceiling: Unl
Heat Index: 39°   Visibility: 3mi
Dew Point: 37°   Wind: 10mph
Humidity: 93%   Direction: 130°SE
Pressure: 30.27"   Gusts: NA
Location:  53.57°N, 14.82°E
Report Text: EPSC 230230Z 13009KT 5000 -RA BR NSC 04/03 Q1025
Loading
Personal Weather Stations






























Interactive Weather Map New forecast layout! Learn more

10-Day Weather Forecast

Advertisements
Track Severe Weather on mobile